Terminal Aerodrome Forecast
Issued by NWS

Home | Current Version | Previous Version | Text Only | Print | Product List | Glossary On
Versions: 1 2 3 4 5 6 7 8 9 10 11 12 13 14 15
000
FTUS45 KSLC 180540
TAFENV
TAF
KENV 180540Z 1806/1906 23009KT P6SM SCT120 BKN200
     FM181000 29011KT P6SM BKN080 OVC120
     FM181700 30020G30KT P6SM VCSH BKN050 OVC080
     FM190200 33010G15KT P6SM SCT050 BKN080=

USA.gov is the U.S. government's official web portal to all federal, state and local government web resources and services.